Airfield :
LOGIN :

Register | Disclaimer

   EN    FR    IT 

 










Legend :    VFR   Marginal VFR   IFR   Intensive IFR   Very Intensive IFR
Visi :
Ceiling :
>= 8 km
>= 3000ft
5 to 8 km
1000 to 3000 ft
1500m to 5 km
500 to 1000 ft
800 to 1500m
200 to 500 ft
< 800m
< 200 ft
Symbols :   Thunderstorms  Fog  Heavy snow  Heavy precipitations  Wind > 20 kt
SIGMETs :     Misc.  Thunderstorms  Icing  Turbulence  Mountain Waves  Volcanic Ashes







- Airport Elevation : 401 ft
- IATA code : LEQ
- Download approach charts


EGHC - Land's End

CURRENT METAR :
  • 201020Z 02017KT 2000 VCFG FEW000 11/09 Q1025

EXPIRED METARs :
  • 200950Z 02016KT 9000 2000NW VCFG FEW000 10/09 Q1025
  • 200920Z 02015KT 0600 FG BKN000 10/09 Q1025
  • 200850Z 03014KT 4000 VCFG FEW002 10/10 Q1025
  • 200820Z 02017KT 4000 BCFG FEW002 09/09 Q1025
  • 200750Z 02016KT 0200 FG VV/// 08/08 Q1025

TAF TAF EGHC
Valid from the 20 at 09:00 until the 20 at 18:00 UTC


200804Z 2009/2018 02013KT 0300 FG VV///
PROB30
TEMPO 2009/2012 3000 BR BKN002
BECMG 2012/2015 9999 NSW FEW045
No reported NOTAMs for that airfield.



MET'MAP, your aeronautical weather chart ! - Copyright ORBIFLY December 2007 - Disclaimer

ORBIFLY MET'MAP TEAM :

Programming & Development : Alexandra Zaïnal
Concept & Development : Baudouin d'Aumeries
Co-Development & Prog : Marc-Olivier Méhu
Technical & hardware support : Manuel Goepfert

Contact : metmap@orbifly.com




SOURCES & CREDITS :

   NOAA